sensor_id;sensor_type;location;lat;lon;timestamp;P1;durP1;ratioP1;P2;durP2;ratioP2
75246;SDS011;63844;50.042;19.224;2022-09-29T00:00:41;4.60;;;2.30;;
75246;SDS011;63844;50.042;19.224;2022-09-29T00:03:26;3.40;;;1.90;;
75246;SDS011;63844;50.042;19.224;2022-09-29T00:05:53;4.10;;;2.20;;
75246;SDS011;63844;50.042;19.224;2022-09-29T00:08:21;5.80;;;1.90;;
75246;SDS011;63844;50.042;19.224;2022-09-29T00:10:49;3.60;;;1.90;;
75246;SDS011;63844;50.042;19.224;2022-09-29T00:15:43;7.70;;;4.40;;
75246;SDS011;63844;50.042;19.224;2022-09-29T00:18:10;5.60;;;3.50;;
75246;SDS011;63844;50.042;19.224;2022-09-29T00:20:36;7.80;;;4.40;;
75246;SDS011;63844;50.042;19.224;2022-09-29T00:23:03;7.30;;;3.90;;
75246;SDS011;63844;50.042;19.224;2022-09-29T00:25:30;7.30;;;4.10;;
75246;SDS011;63844;50.042;19.224;2022-09-29T00:27:57;6.50;;;4.80;;
75246;SDS011;63844;50.042;19.224;2022-09-29T00:30:23;6.60;;;4.50;;
75246;SDS011;63844;50.042;19.224;2022-09-29T00:32:49;5.80;;;3.60;;
75246;SDS011;63844;50.042;19.224;2022-09-29T00:35:16;7.20;;;4.60;;
75246;SDS011;63844;50.042;19.224;2022-09-29T00:37:43;5.40;;;3.50;;
75246;SDS011;63844;50.042;19.224;2022-09-29T00:42:36;7.40;;;3.60;;
75246;SDS011;63844;50.042;19.224;2022-09-29T00:45:05;7.00;;;3.60;;
75246;SDS011;63844;50.042;19.224;2022-09-29T00:47:39;6.50;;;3.90;;
75246;SDS011;63844;50.042;19.224;2022-09-29T00:50:12;6.40;;;3.60;;
75246;SDS011;63844;50.042;19.224;2022-09-29T00:52:43;6.70;;;3.60;;
75246;SDS011;63844;50.042;19.224;2022-09-29T00:55:17;7.00;;;3.60;;
75246;SDS011;63844;50.042;19.224;2022-09-29T01:00:32;7.10;;;3.90;;
75246;SDS011;63844;50.042;19.224;2022-09-29T01:03:03;6.40;;;3.90;;
75246;SDS011;63844;50.042;19.224;2022-09-29T01:05:36;4.20;;;3.00;;
75246;SDS011;63844;50.042;19.224;2022-09-29T01:08:15;4.60;;;2.70;;
75246;SDS011;63844;50.042;19.224;2022-09-29T01:10:49;5.50;;;2.60;;
75246;SDS011;63844;50.042;19.224;2022-09-29T01:13:17;3.30;;;2.00;;
75246;SDS011;63844;50.042;19.224;2022-09-29T01:15:44;4.70;;;2.00;;
75246;SDS011;63844;50.042;19.224;2022-09-29T01:18:11;2.80;;;2.20;;
75246;SDS011;63844;50.042;19.224;2022-09-29T01:20:40;4.90;;;2.30;;
75246;SDS011;63844;50.042;19.224;2022-09-29T01:23:31;3.90;;;2.50;;
75246;SDS011;63844;50.042;19.224;2022-09-29T01:26:36;4.00;;;2.20;;
75246;SDS011;63844;50.042;19.224;2022-09-29T01:34:52;2.70;;;1.50;;
75246;SDS011;63844;50.042;19.224;2022-09-29T01:40:08;3.00;;;2.20;;
75246;SDS011;63844;50.042;19.224;2022-09-29T01:42:53;4.80;;;3.30;;
75246;SDS011;63844;50.042;19.224;2022-09-29T01:45:28;4.10;;;2.60;;
75246;SDS011;63844;50.042;19.224;2022-09-29T01:48:08;4.20;;;2.70;;
75246;SDS011;63844;50.042;19.224;2022-09-29T01:50:47;4.70;;;2.50;;
75246;SDS011;63844;50.042;19.224;2022-09-29T01:53:17;5.90;;;1.90;;
75246;SDS011;63844;50.042;19.224;2022-09-29T01:55:51;3.90;;;2.50;;
75246;SDS011;63844;50.042;19.224;2022-09-29T01:58:26;3.70;;;2.00;;
75246;SDS011;63844;50.042;19.224;2022-09-29T02:01:14;3.70;;;1.90;;
75246;SDS011;63844;50.042;19.224;2022-09-29T02:03:45;3.30;;;2.00;;
75246;SDS011;63844;50.042;19.224;2022-09-29T02:06:18;4.90;;;2.30;;
75246;SDS011;63844;50.042;19.224;2022-09-29T02:08:50;3.10;;;1.90;;
75246;SDS011;63844;50.042;19.224;2022-09-29T02:11:19;3.60;;;2.30;;
75246;SDS011;63844;50.042;19.224;2022-09-29T02:13:48;3.00;;;2.10;;
75246;SDS011;63844;50.042;19.224;2022-09-29T02:16:24;3.30;;;2.30;;
75246;SDS011;63844;50.042;19.224;2022-09-29T02:18:56;2.90;;;2.00;;
75246;SDS011;63844;50.042;19.224;2022-09-29T02:21:27;3.70;;;2.10;;
75246;SDS011;63844;50.042;19.224;2022-09-29T02:23:54;2.70;;;1.70;;
75246;SDS011;63844;50.042;19.224;2022-09-29T02:26:21;3.00;;;2.00;;
75246;SDS011;63844;50.042;19.224;2022-09-29T02:28:50;3.00;;;1.80;;
75246;SDS011;63844;50.042;19.224;2022-09-29T02:31:18;3.40;;;1.90;;
75246;SDS011;63844;50.042;19.224;2022-09-29T02:36:15;4.20;;;2.80;;
75246;SDS011;63844;50.042;19.224;2022-09-29T02:44:55;3.10;;;2.10;;
75246;SDS011;63844;50.042;19.224;2022-09-29T02:50:18;5.10;;;2.90;;
75246;SDS011;63844;50.042;19.224;2022-09-29T02:55:51;3.80;;;2.20;;
75246;SDS011;63844;50.042;19.224;2022-09-29T02:58:30;4.40;;;2.40;;
75246;SDS011;63844;50.042;19.224;2022-09-29T03:01:01;4.30;;;2.50;;
75246;SDS011;63844;50.042;19.224;2022-09-29T03:03:28;5.10;;;2.80;;
75246;SDS011;63844;50.042;19.224;2022-09-29T03:05:54;5.30;;;2.60;;
75246;SDS011;63844;50.042;19.224;2022-09-29T03:08:21;4.20;;;2.80;;
75246;SDS011;63844;50.042;19.224;2022-09-29T03:10:47;6.70;;;4.30;;
75246;SDS011;63844;50.042;19.224;2022-09-29T03:13:14;7.10;;;4.80;;
75246;SDS011;63844;50.042;19.224;2022-09-29T03:15:41;5.80;;;4.30;;
75246;SDS011;63844;50.042;19.224;2022-09-29T03:18:07;5.20;;;3.90;;
75246;SDS011;63844;50.042;19.224;2022-09-29T03:20:33;6.00;;;4.30;;
75246;SDS011;63844;50.042;19.224;2022-09-29T03:23:00;8.20;;;5.60;;
75246;SDS011;63844;50.042;19.224;2022-09-29T03:25:26;12.00;;;9.10;;
75246;SDS011;63844;50.042;19.224;2022-09-29T03:27:53;11.40;;;7.80;;
75246;SDS011;63844;50.042;19.224;2022-09-29T03:32:48;10.80;;;7.20;;
75246;SDS011;63844;50.042;19.224;2022-09-29T03:35:15;10.00;;;6.60;;
75246;SDS011;63844;50.042;19.224;2022-09-29T03:40:08;12.70;;;8.80;;
75246;SDS011;63844;50.042;19.224;2022-09-29T03:42:35;14.90;;;9.60;;
75246;SDS011;63844;50.042;19.224;2022-09-29T03:45:01;14.00;;;9.20;;
75246;SDS011;63844;50.042;19.224;2022-09-29T03:47:28;8.50;;;6.30;;
75246;SDS011;63844;50.042;19.224;2022-09-29T03:49:54;8.90;;;5.90;;
75246;SDS011;63844;50.042;19.224;2022-09-29T03:52:21;11.70;;;6.60;;
75246;SDS011;63844;50.042;19.224;2022-09-29T03:54:47;11.70;;;6.50;;
75246;SDS011;63844;50.042;19.224;2022-09-29T03:57:13;8.70;;;6.40;;
75246;SDS011;63844;50.042;19.224;2022-09-29T03:59:40;10.90;;;6.10;;
75246;SDS011;63844;50.042;19.224;2022-09-29T04:02:06;10.00;;;7.20;;
75246;SDS011;63844;50.042;19.224;2022-09-29T04:04:33;10.40;;;6.40;;
75246;SDS011;63844;50.042;19.224;2022-09-29T04:06:59;12.70;;;6.10;;
75246;SDS011;63844;50.042;19.224;2022-09-29T04:09:25;8.20;;;6.10;;
75246;SDS011;63844;50.042;19.224;2022-09-29T04:11:51;9.00;;;5.30;;
75246;SDS011;63844;50.042;19.224;2022-09-29T04:14:18;10.40;;;6.00;;
75246;SDS011;63844;50.042;19.224;2022-09-29T04:16:44;10.10;;;6.30;;
75246;SDS011;63844;50.042;19.224;2022-09-29T04:19:10;12.00;;;5.60;;
75246;SDS011;63844;50.042;19.224;2022-09-29T04:21:37;8.20;;;5.00;;
75246;SDS011;63844;50.042;19.224;2022-09-29T04:24:03;6.40;;;4.80;;
75246;SDS011;63844;50.042;19.224;2022-09-29T04:26:29;7.70;;;5.40;;
75246;SDS011;63844;50.042;19.224;2022-09-29T04:28:56;8.70;;;5.40;;
75246;SDS011;63844;50.042;19.224;2022-09-29T04:31:22;11.20;;;5.20;;
75246;SDS011;63844;50.042;19.224;2022-09-29T04:33:49;8.50;;;4.80;;
75246;SDS011;63844;50.042;19.224;2022-09-29T04:36:15;8.70;;;5.00;;
75246;SDS011;63844;50.042;19.224;2022-09-29T04:38:41;7.80;;;4.60;;
75246;SDS011;63844;50.042;19.224;2022-09-29T04:41:08;6.70;;;4.50;;
75246;SDS011;63844;50.042;19.224;2022-09-29T04:43:34;7.80;;;4.90;;
75246;SDS011;63844;50.042;19.224;2022-09-29T04:46:04;9.50;;;6.00;;
75246;SDS011;63844;50.042;19.224;2022-09-29T04:48:32;10.80;;;6.40;;
75246;SDS011;63844;50.042;19.224;2022-09-29T04:51:00;8.70;;;5.40;;
75246;SDS011;63844;50.042;19.224;2022-09-29T04:53:27;8.80;;;5.40;;
75246;SDS011;63844;50.042;19.224;2022-09-29T04:55:53;8.80;;;6.40;;
75246;SDS011;63844;50.042;19.224;2022-09-29T04:58:19;10.30;;;6.90;;
75246;SDS011;63844;50.042;19.224;2022-09-29T05:00:46;12.10;;;6.40;;
75246;SDS011;63844;50.042;19.224;2022-09-29T05:03:12;7.70;;;6.00;;
75246;SDS011;63844;50.042;19.224;2022-09-29T05:05:38;11.00;;;7.70;;
75246;SDS011;63844;50.042;19.224;2022-09-29T05:08:05;11.10;;;6.70;;
75246;SDS011;63844;50.042;19.224;2022-09-29T05:10:32;10.10;;;5.80;;
75246;SDS011;63844;50.042;19.224;2022-09-29T05:12:58;9.60;;;6.30;;
75246;SDS011;63844;50.042;19.224;2022-09-29T05:15:24;9.70;;;6.60;;
75246;SDS011;63844;50.042;19.224;2022-09-29T05:17:51;9.60;;;6.30;;
75246;SDS011;63844;50.042;19.224;2022-09-29T05:20:18;12.60;;;8.10;;
75246;SDS011;63844;50.042;19.224;2022-09-29T05:22:44;11.30;;;6.50;;
75246;SDS011;63844;50.042;19.224;2022-09-29T05:25:11;9.00;;;6.10;;
75246;SDS011;63844;50.042;19.224;2022-09-29T05:27:37;9.30;;;6.30;;
75246;SDS011;63844;50.042;19.224;2022-09-29T05:30:04;8.80;;;5.70;;
75246;SDS011;63844;50.042;19.224;2022-09-29T05:32:31;9.50;;;5.20;;
75246;SDS011;63844;50.042;19.224;2022-09-29T05:34:57;9.40;;;6.10;;
75246;SDS011;63844;50.042;19.224;2022-09-29T05:37:24;14.50;;;7.30;;
75246;SDS011;63844;50.042;19.224;2022-09-29T05:39:50;16.40;;;9.50;;
75246;SDS011;63844;50.042;19.224;2022-09-29T05:42:17;13.30;;;8.70;;
75246;SDS011;63844;50.042;19.224;2022-09-29T05:44:43;9.50;;;6.00;;
75246;SDS011;63844;50.042;19.224;2022-09-29T05:47:09;8.80;;;5.60;;
75246;SDS011;63844;50.042;19.224;2022-09-29T05:49:36;9.40;;;6.40;;
75246;SDS011;63844;50.042;19.224;2022-09-29T05:52:04;10.90;;;7.80;;
75246;SDS011;63844;50.042;19.224;2022-09-29T05:54:30;11.10;;;6.30;;
75246;SDS011;63844;50.042;19.224;2022-09-29T05:56:57;11.30;;;7.50;;
75246;SDS011;63844;50.042;19.224;2022-09-29T05:59:23;9.90;;;6.60;;
75246;SDS011;63844;50.042;19.224;2022-09-29T06:01:49;11.30;;;7.70;;
75246;SDS011;63844;50.042;19.224;2022-09-29T06:04:16;14.20;;;9.40;;
75246;SDS011;63844;50.042;19.224;2022-09-29T06:06:42;11.70;;;7.90;;
75246;SDS011;63844;50.042;19.224;2022-09-29T06:09:09;12.00;;;6.60;;
75246;SDS011;63844;50.042;19.224;2022-09-29T06:11:35;19.50;;;11.70;;
75246;SDS011;63844;50.042;19.224;2022-09-29T06:14:02;20.50;;;11.50;;
75246;SDS011;63844;50.042;19.224;2022-09-29T06:16:29;16.00;;;9.90;;
75246;SDS011;63844;50.042;19.224;2022-09-29T06:19:00;17.50;;;10.10;;
75246;SDS011;63844;50.042;19.224;2022-09-29T06:21:27;16.80;;;10.00;;
75246;SDS011;63844;50.042;19.224;2022-09-29T06:23:55;14.30;;;9.60;;
75246;SDS011;63844;50.042;19.224;2022-09-29T06:26:24;18.70;;;11.70;;
75246;SDS011;63844;50.042;19.224;2022-09-29T06:28:51;13.60;;;8.60;;
75246;SDS011;63844;50.042;19.224;2022-09-29T06:31:19;12.00;;;7.50;;
75246;SDS011;63844;50.042;19.224;2022-09-29T06:33:47;12.80;;;6.60;;
75246;SDS011;63844;50.042;19.224;2022-09-29T06:39:02;11.80;;;6.10;;
75246;SDS011;63844;50.042;19.224;2022-09-29T06:41:30;8.20;;;5.80;;
75246;SDS011;63844;50.042;19.224;2022-09-29T06:43:56;8.70;;;5.30;;
75246;SDS011;63844;50.042;19.224;2022-09-29T06:46:23;10.00;;;5.40;;
75246;SDS011;63844;50.042;19.224;2022-09-29T06:48:52;7.00;;;4.00;;
75246;SDS011;63844;50.042;19.224;2022-09-29T06:51:20;7.00;;;4.90;;
75246;SDS011;63844;50.042;19.224;2022-09-29T06:53:48;5.60;;;3.80;;
75246;SDS011;63844;50.042;19.224;2022-09-29T06:56:16;7.80;;;5.00;;
75246;SDS011;63844;50.042;19.224;2022-09-29T06:58:44;8.30;;;5.50;;
75246;SDS011;63844;50.042;19.224;2022-09-29T07:01:12;6.40;;;4.50;;
75246;SDS011;63844;50.042;19.224;2022-09-29T07:03:39;6.30;;;3.80;;
75246;SDS011;63844;50.042;19.224;2022-09-29T07:06:07;8.00;;;4.30;;
75246;SDS011;63844;50.042;19.224;2022-09-29T07:08:35;6.00;;;3.20;;
75246;SDS011;63844;50.042;19.224;2022-09-29T07:11:07;6.30;;;4.00;;
75246;SDS011;63844;50.042;19.224;2022-09-29T07:13:34;6.00;;;4.50;;
75246;SDS011;63844;50.042;19.224;2022-09-29T07:16:05;6.90;;;4.00;;
75246;SDS011;63844;50.042;19.224;2022-09-29T07:18:33;6.20;;;3.30;;
75246;SDS011;63844;50.042;19.224;2022-09-29T07:21:12;7.20;;;3.10;;
75246;SDS011;63844;50.042;19.224;2022-09-29T07:23:43;6.00;;;3.60;;
75246;SDS011;63844;50.042;19.224;2022-09-29T07:26:10;6.90;;;3.80;;
75246;SDS011;63844;50.042;19.224;2022-09-29T07:28:37;3.40;;;2.40;;
75246;SDS011;63844;50.042;19.224;2022-09-29T07:31:05;3.10;;;2.20;;
75246;SDS011;63844;50.042;19.224;2022-09-29T07:33:33;4.30;;;2.60;;
75246;SDS011;63844;50.042;19.224;2022-09-29T07:36:00;5.10;;;3.20;;
75246;SDS011;63844;50.042;19.224;2022-09-29T07:38:27;5.60;;;3.30;;
75246;SDS011;63844;50.042;19.224;2022-09-29T07:40:58;4.40;;;2.90;;
75246;SDS011;63844;50.042;19.224;2022-09-29T07:43:26;5.00;;;3.10;;
75246;SDS011;63844;50.042;19.224;2022-09-29T07:45:53;6.50;;;3.80;;
75246;SDS011;63844;50.042;19.224;2022-09-29T07:48:20;4.20;;;2.60;;
75246;SDS011;63844;50.042;19.224;2022-09-29T07:50:46;5.00;;;2.90;;
75246;SDS011;63844;50.042;19.224;2022-09-29T07:53:13;5.20;;;3.20;;
75246;SDS011;63844;50.042;19.224;2022-09-29T07:55:39;3.80;;;2.80;;
75246;SDS011;63844;50.042;19.224;2022-09-29T07:58:06;6.00;;;2.80;;
75246;SDS011;63844;50.042;19.224;2022-09-29T08:03:03;4.10;;;2.20;;
75246;SDS011;63844;50.042;19.224;2022-09-29T08:05:32;5.10;;;3.80;;
75246;SDS011;63844;50.042;19.224;2022-09-29T08:08:03;3.50;;;1.70;;
75246;SDS011;63844;50.042;19.224;2022-09-29T08:10:30;2.50;;;1.70;;
75246;SDS011;63844;50.042;19.224;2022-09-29T08:12:58;4.00;;;2.10;;
75246;SDS011;63844;50.042;19.224;2022-09-29T08:17:51;4.20;;;2.50;;
75246;SDS011;63844;50.042;19.224;2022-09-29T08:20:19;4.20;;;2.40;;
75246;SDS011;63844;50.042;19.224;2022-09-29T08:22:47;4.10;;;2.30;;
75246;SDS011;63844;50.042;19.224;2022-09-29T08:25:14;5.00;;;2.70;;
75246;SDS011;63844;50.042;19.224;2022-09-29T08:27:41;6.00;;;2.40;;
75246;SDS011;63844;50.042;19.224;2022-09-29T08:30:08;4.80;;;2.10;;
75246;SDS011;63844;50.042;19.224;2022-09-29T08:32:35;2.30;;;1.40;;
75246;SDS011;63844;50.042;19.224;2022-09-29T08:35:03;4.90;;;1.20;;
75246;SDS011;63844;50.042;19.224;2022-09-29T08:37:31;2.70;;;1.50;;
75246;SDS011;63844;50.042;19.224;2022-09-29T08:39:57;2.80;;;1.60;;
75246;SDS011;63844;50.042;19.224;2022-09-29T08:45:18;4.50;;;2.20;;
75246;SDS011;63844;50.042;19.224;2022-09-29T08:47:52;3.10;;;2.40;;
75246;SDS011;63844;50.042;19.224;2022-09-29T08:50:30;4.20;;;2.30;;
75246;SDS011;63844;50.042;19.224;2022-09-29T08:53:03;3.90;;;2.10;;
75246;SDS011;63844;50.042;19.224;2022-09-29T08:55:37;2.30;;;0.90;;
75246;SDS011;63844;50.042;19.224;2022-09-29T08:58:11;1.60;;;0.80;;
75246;SDS011;63844;50.042;19.224;2022-09-29T09:00:45;1.00;;;0.70;;
75246;SDS011;63844;50.042;19.224;2022-09-29T09:03:36;2.60;;;1.50;;
75246;SDS011;63844;50.042;19.224;2022-09-29T09:06:31;1.80;;;1.10;;
75246;SDS011;63844;50.042;19.224;2022-09-29T09:09:09;1.50;;;0.70;;
75246;SDS011;63844;50.042;19.224;2022-09-29T09:14:36;2.40;;;0.80;;
75246;SDS011;63844;50.042;19.224;2022-09-29T09:20:20;2.30;;;1.40;;
75246;SDS011;63844;50.042;19.224;2022-09-29T09:22:58;3.20;;;1.30;;
75246;SDS011;63844;50.042;19.224;2022-09-29T09:25:31;2.10;;;1.30;;
75246;SDS011;63844;50.042;19.224;2022-09-29T09:30:39;2.00;;;1.20;;
75246;SDS011;63844;50.042;19.224;2022-09-29T09:33:14;2.80;;;1.10;;
75246;SDS011;63844;50.042;19.224;2022-09-29T09:35:48;2.10;;;0.90;;
75246;SDS011;63844;50.042;19.224;2022-09-29T09:38:22;1.20;;;1.00;;
75246;SDS011;63844;50.042;19.224;2022-09-29T09:40:54;1.20;;;0.90;;
75246;SDS011;63844;50.042;19.224;2022-09-29T09:43:43;1.30;;;0.80;;
75246;SDS011;63844;50.042;19.224;2022-09-29T09:51:32;1.60;;;0.80;;
75246;SDS011;63844;50.042;19.224;2022-09-29T09:54:21;1.40;;;0.90;;
75246;SDS011;63844;50.042;19.224;2022-09-29T09:59:40;1.50;;;0.80;;
75246;SDS011;63844;50.042;19.224;2022-09-29T10:02:27;0.80;;;0.60;;
75246;SDS011;63844;50.042;19.224;2022-09-29T10:04:55;1.00;;;0.40;;
75246;SDS011;63844;50.042;19.224;2022-09-29T10:07:27;1.90;;;0.70;;
75246;SDS011;63844;50.042;19.224;2022-09-29T10:09:55;0.80;;;0.40;;
75246;SDS011;63844;50.042;19.224;2022-09-29T10:12:23;0.80;;;0.30;;
75246;SDS011;63844;50.042;19.224;2022-09-29T10:14:57;0.60;;;0.50;;
75246;SDS011;63844;50.042;19.224;2022-09-29T10:17:29;0.90;;;0.40;;
75246;SDS011;63844;50.042;19.224;2022-09-29T10:20:03;1.30;;;0.70;;
75246;SDS011;63844;50.042;19.224;2022-09-29T10:22:32;0.90;;;0.30;;
75246;SDS011;63844;50.042;19.224;2022-09-29T10:25:18;1.50;;;0.30;;
75246;SDS011;63844;50.042;19.224;2022-09-29T10:27:46;0.50;;;0.20;;
75246;SDS011;63844;50.042;19.224;2022-09-29T10:30:23;1.20;;;0.40;;
75246;SDS011;63844;50.042;19.224;2022-09-29T10:32:58;0.50;;;0.30;;
75246;SDS011;63844;50.042;19.224;2022-09-29T10:35:35;0.80;;;0.40;;
75246;SDS011;63844;50.042;19.224;2022-09-29T10:38:07;0.80;;;0.50;;
75246;SDS011;63844;50.042;19.224;2022-09-29T10:41:01;1.40;;;0.60;;
75246;SDS011;63844;50.042;19.224;2022-09-29T10:45:59;0.50;;;0.30;;
75246;SDS011;63844;50.042;19.224;2022-09-29T10:48:25;0.70;;;0.50;;
75246;SDS011;63844;50.042;19.224;2022-09-29T10:50:54;1.00;;;0.40;;
75246;SDS011;63844;50.042;19.224;2022-09-29T10:56:14;1.20;;;0.70;;
75246;SDS011;63844;50.042;19.224;2022-09-29T10:58:57;1.20;;;0.70;;
75246;SDS011;63844;50.042;19.224;2022-09-29T11:01:27;1.70;;;1.10;;
75246;SDS011;63844;50.042;19.224;2022-09-29T11:03:58;1.10;;;0.60;;
75246;SDS011;63844;50.042;19.224;2022-09-29T11:06:35;1.00;;;0.60;;
75246;SDS011;63844;50.042;19.224;2022-09-29T11:11:34;5.70;;;1.00;;
75246;SDS011;63844;50.042;19.224;2022-09-29T11:14:02;2.10;;;0.90;;
75246;SDS011;63844;50.042;19.224;2022-09-29T11:16:33;1.50;;;0.80;;
75246;SDS011;63844;50.042;19.224;2022-09-29T11:24:36;1.70;;;0.80;;
75246;SDS011;63844;50.042;19.224;2022-09-29T11:29:47;0.60;;;0.50;;
75246;SDS011;63844;50.042;19.224;2022-09-29T11:32:33;1.20;;;0.80;;
75246;SDS011;63844;50.042;19.224;2022-09-29T11:43:06;1.00;;;0.40;;
75246;SDS011;63844;50.042;19.224;2022-09-29T11:45:59;0.90;;;0.50;;
75246;SDS011;63844;50.042;19.224;2022-09-29T11:51:23;1.30;;;0.50;;
75246;SDS011;63844;50.042;19.224;2022-09-29T11:57:00;1.00;;;0.90;;
75246;SDS011;63844;50.042;19.224;2022-09-29T12:05:25;2.90;;;1.40;;
75246;SDS011;63844;50.042;19.224;2022-09-29T12:11:04;2.50;;;0.80;;
75246;SDS011;63844;50.042;19.224;2022-09-29T12:13:42;1.40;;;1.00;;
75246;SDS011;63844;50.042;19.224;2022-09-29T12:16:32;2.70;;;1.40;;
75246;SDS011;63844;50.042;19.224;2022-09-29T12:19:12;1.20;;;0.80;;
75246;SDS011;63844;50.042;19.224;2022-09-29T12:21:42;1.20;;;0.80;;
75246;SDS011;63844;50.042;19.224;2022-09-29T12:24:30;1.70;;;0.70;;
75246;SDS011;63844;50.042;19.224;2022-09-29T12:27:03;0.90;;;0.60;;
75246;SDS011;63844;50.042;19.224;2022-09-29T12:29:36;1.60;;;0.60;;
75246;SDS011;63844;50.042;19.224;2022-09-29T12:32:08;0.60;;;0.50;;
75246;SDS011;63844;50.042;19.224;2022-09-29T12:34:50;1.20;;;0.60;;
75246;SDS011;63844;50.042;19.224;2022-09-29T12:40:08;2.10;;;0.60;;
75246;SDS011;63844;50.042;19.224;2022-09-29T12:42:47;1.90;;;0.80;;
75246;SDS011;63844;50.042;19.224;2022-09-29T12:48:34;1.00;;;0.30;;
75246;SDS011;63844;50.042;19.224;2022-09-29T12:56:52;1.00;;;0.50;;
75246;SDS011;63844;50.042;19.224;2022-09-29T12:59:27;0.80;;;0.60;;
75246;SDS011;63844;50.042;19.224;2022-09-29T13:19:09;1.20;;;0.80;;
75246;SDS011;63844;50.042;19.224;2022-09-29T13:27:44;1.20;;;0.60;;
75246;SDS011;63844;50.042;19.224;2022-09-29T13:30:14;1.60;;;0.90;;
75246;SDS011;63844;50.042;19.224;2022-09-29T13:32:44;1.40;;;0.90;;
75246;SDS011;63844;50.042;19.224;2022-09-29T13:35:21;1.30;;;0.90;;
75246;SDS011;63844;50.042;19.224;2022-09-29T13:37:51;1.80;;;0.90;;
75246;SDS011;63844;50.042;19.224;2022-09-29T13:40:26;1.40;;;0.50;;
75246;SDS011;63844;50.042;19.224;2022-09-29T13:42:55;1.70;;;0.80;;
75246;SDS011;63844;50.042;19.224;2022-09-29T13:48:00;2.60;;;1.20;;
75246;SDS011;63844;50.042;19.224;2022-09-29T13:50:48;1.60;;;0.90;;
75246;SDS011;63844;50.042;19.224;2022-09-29T13:58:24;1.70;;;0.70;;
75246;SDS011;63844;50.042;19.224;2022-09-29T14:00:53;1.80;;;0.80;;
75246;SDS011;63844;50.042;19.224;2022-09-29T14:03:54;2.40;;;1.00;;
75246;SDS011;63844;50.042;19.224;2022-09-29T14:06:14;1.70;;;0.90;;
75246;SDS011;63844;50.042;19.224;2022-09-29T14:11:19;1.40;;;0.90;;
75246;SDS011;63844;50.042;19.224;2022-09-29T14:17:09;3.60;;;0.90;;
75246;SDS011;63844;50.042;19.224;2022-09-29T14:33:25;1.20;;;0.80;;
75246;SDS011;63844;50.042;19.224;2022-09-29T14:38:27;2.00;;;1.00;;
75246;SDS011;63844;50.042;19.224;2022-09-29T14:46:14;1.40;;;0.50;;
75246;SDS011;63844;50.042;19.224;2022-09-29T14:58:12;1.80;;;0.70;;
75246;SDS011;63844;50.042;19.224;2022-09-29T15:03:46;1.00;;;0.50;;
75246;SDS011;63844;50.042;19.224;2022-09-29T15:06:22;1.00;;;0.60;;
75246;SDS011;63844;50.042;19.224;2022-09-29T15:08:57;2.50;;;0.70;;
75246;SDS011;63844;50.042;19.224;2022-09-29T15:16:29;1.00;;;0.70;;
75246;SDS011;63844;50.042;19.224;2022-09-29T15:19:06;1.90;;;0.80;;
75246;SDS011;63844;50.042;19.224;2022-09-29T15:21:59;1.30;;;0.80;;
75246;SDS011;63844;50.042;19.224;2022-09-29T15:27:45;3.30;;;0.70;;
75246;SDS011;63844;50.042;19.224;2022-09-29T15:30:16;3.00;;;0.80;;
75246;SDS011;63844;50.042;19.224;2022-09-29T15:32:45;1.70;;;0.80;;
75246;SDS011;63844;50.042;19.224;2022-09-29T15:35:14;2.00;;;0.60;;
75246;SDS011;63844;50.042;19.224;2022-09-29T15:40:15;3.10;;;1.00;;
75246;SDS011;63844;50.042;19.224;2022-09-29T15:42:44;2.90;;;1.00;;
75246;SDS011;63844;50.042;19.224;2022-09-29T15:45:15;2.00;;;0.80;;
75246;SDS011;63844;50.042;19.224;2022-09-29T15:47:48;1.80;;;0.60;;
75246;SDS011;63844;50.042;19.224;2022-09-29T15:50:25;2.00;;;1.10;;
75246;SDS011;63844;50.042;19.224;2022-09-29T15:52:56;2.30;;;1.20;;
75246;SDS011;63844;50.042;19.224;2022-09-29T15:55:29;1.30;;;0.80;;
75246;SDS011;63844;50.042;19.224;2022-09-29T15:57:56;2.60;;;1.00;;
75246;SDS011;63844;50.042;19.224;2022-09-29T16:05:37;3.30;;;1.20;;
75246;SDS011;63844;50.042;19.224;2022-09-29T16:08:16;6.60;;;1.60;;
75246;SDS011;63844;50.042;19.224;2022-09-29T16:10:51;13.30;;;2.30;;
75246;SDS011;63844;50.042;19.224;2022-09-29T16:13:21;3.70;;;1.00;;
75246;SDS011;63844;50.042;19.224;2022-09-29T16:15:51;8.70;;;1.80;;
75246;SDS011;63844;50.042;19.224;2022-09-29T16:18:40;2.50;;;1.10;;
75246;SDS011;63844;50.042;19.224;2022-09-29T16:21:10;2.10;;;1.20;;
75246;SDS011;63844;50.042;19.224;2022-09-29T16:23:49;2.40;;;1.20;;
75246;SDS011;63844;50.042;19.224;2022-09-29T16:29:00;2.70;;;1.30;;
75246;SDS011;63844;50.042;19.224;2022-09-29T16:31:31;2.60;;;1.10;;
75246;SDS011;63844;50.042;19.224;2022-09-29T16:33:58;3.50;;;1.50;;
75246;SDS011;63844;50.042;19.224;2022-09-29T16:36:26;1.80;;;1.10;;
75246;SDS011;63844;50.042;19.224;2022-09-29T16:38:59;2.20;;;1.60;;
75246;SDS011;63844;50.042;19.224;2022-09-29T16:41:34;3.60;;;1.10;;
75246;SDS011;63844;50.042;19.224;2022-09-29T16:46:55;2.80;;;1.20;;
75246;SDS011;63844;50.042;19.224;2022-09-29T16:49:26;2.30;;;1.00;;
75246;SDS011;63844;50.042;19.224;2022-09-29T16:52:12;3.60;;;1.50;;
75246;SDS011;63844;50.042;19.224;2022-09-29T16:54:46;1.50;;;1.00;;
75246;SDS011;63844;50.042;19.224;2022-09-29T16:57:23;4.00;;;1.40;;
75246;SDS011;63844;50.042;19.224;2022-09-29T16:59:55;3.40;;;1.50;;
75246;SDS011;63844;50.042;19.224;2022-09-29T17:02:23;2.30;;;1.50;;
75246;SDS011;63844;50.042;19.224;2022-09-29T17:04:51;5.60;;;1.60;;
75246;SDS011;63844;50.042;19.224;2022-09-29T17:07:19;4.80;;;1.80;;
75246;SDS011;63844;50.042;19.224;2022-09-29T17:09:58;3.30;;;1.50;;
75246;SDS011;63844;50.042;19.224;2022-09-29T17:12:26;3.40;;;1.70;;
75246;SDS011;63844;50.042;19.224;2022-09-29T17:14:54;2.90;;;1.90;;
75246;SDS011;63844;50.042;19.224;2022-09-29T17:17:24;4.00;;;2.00;;
75246;SDS011;63844;50.042;19.224;2022-09-29T17:19:52;3.30;;;1.80;;
75246;SDS011;63844;50.042;19.224;2022-09-29T17:22:27;3.50;;;1.60;;
75246;SDS011;63844;50.042;19.224;2022-09-29T17:25:04;3.00;;;1.50;;
75246;SDS011;63844;50.042;19.224;2022-09-29T17:27:32;5.10;;;1.80;;
75246;SDS011;63844;50.042;19.224;2022-09-29T17:30:18;4.00;;;2.20;;
75246;SDS011;63844;50.042;19.224;2022-09-29T17:32:48;4.70;;;2.40;;
75246;SDS011;63844;50.042;19.224;2022-09-29T17:35:16;5.60;;;2.50;;
75246;SDS011;63844;50.042;19.224;2022-09-29T17:37:44;7.30;;;2.80;;
75246;SDS011;63844;50.042;19.224;2022-09-29T17:42:59;9.50;;;4.40;;
75246;SDS011;63844;50.042;19.224;2022-09-29T17:45:27;15.00;;;7.90;;
75246;SDS011;63844;50.042;19.224;2022-09-29T17:47:55;13.00;;;7.20;;
75246;SDS011;63844;50.042;19.224;2022-09-29T17:53:02;12.20;;;7.00;;
75246;SDS011;63844;50.042;19.224;2022-09-29T17:55:30;11.40;;;7.00;;
75246;SDS011;63844;50.042;19.224;2022-09-29T17:57:57;11.80;;;7.60;;
75246;SDS011;63844;50.042;19.224;2022-09-29T18:02:56;14.20;;;9.30;;
75246;SDS011;63844;50.042;19.224;2022-09-29T18:05:24;12.20;;;7.60;;
75246;SDS011;63844;50.042;19.224;2022-09-29T18:07:53;14.10;;;8.60;;
75246;SDS011;63844;50.042;19.224;2022-09-29T18:13:08;19.50;;;10.90;;
75246;SDS011;63844;50.042;19.224;2022-09-29T18:18:02;24.30;;;11.10;;
75246;SDS011;63844;50.042;19.224;2022-09-29T18:20:31;25.00;;;12.70;;
75246;SDS011;63844;50.042;19.224;2022-09-29T18:22:58;18.10;;;9.30;;
75246;SDS011;63844;50.042;19.224;2022-09-29T18:25:26;16.20;;;7.90;;
75246;SDS011;63844;50.042;19.224;2022-09-29T18:27:55;14.80;;;8.10;;
75246;SDS011;63844;50.042;19.224;2022-09-29T18:30:23;15.50;;;7.70;;